Time;durP1;ratioP1;P1;durP2;ratioP2;P2;SDS_P1;SDS_P2;PMS_P1;PMS_P2;Temp;Humidity;BMP_temperature;BMP_pressure;BME280_temperature;BME280_humidity;BME280_pressure;Samples;Min_cycle;Max_cycle;Signal;HPM_P1;HPM_P2
2023/04/04 00:02:18;;;;;;;5.00;2.50;;;;;;;9.03;42.98;97019.06;5030463;28;20096;-48
2023/04/04 00:04:46;;;;;;;3.22;1.88;;;;;;;9.12;42.84;97004.38;5035757;28;20077;-47
2023/04/04 00:07:16;;;;;;;3.97;2.20;;;;;;;9.10;42.95;97002.81;5037818;28;20092;-50
2023/04/04 00:09:45;;;;;;;2.60;1.53;;;;;;;9.59;42.60;96997.03;5030985;28;20080;-52
2023/04/04 00:12:13;;;;;;;3.90;1.85;;;;;;;9.17;42.38;97007.44;5025733;28;20076;-50
2023/04/04 00:14:42;;;;;;;5.38;2.05;;;;;;;9.13;42.85;97005.19;5038694;28;20077;-49
2023/04/04 00:17:10;;;;;;;3.75;1.50;;;;;;;9.67;42.65;96985.88;5031725;28;20450;-49
2023/04/04 00:19:38;;;;;;;3.22;1.48;;;;;;;9.04;42.81;96991.81;5031132;28;20521;-52
2023/04/04 00:22:07;;;;;;;2.95;1.58;;;;;;;8.96;43.56;96988.94;5029442;28;20107;-50
2023/04/04 00:24:37;;;;;;;3.70;2.25;;;;;;;8.97;43.28;96992.41;5024042;28;20100;-51
2023/04/04 00:27:05;;;;;;;4.38;2.10;;;;;;;9.12;43.42;96991.22;5027594;28;20076;-51
2023/04/04 00:29:34;;;;;;;5.35;1.98;;;;;;;9.16;43.00;96992.63;5023645;28;20108;-47
2023/04/04 00:32:02;;;;;;;4.50;2.08;;;;;;;9.10;43.27;96989.66;5030875;28;20643;-44
2023/04/04 00:34:30;;;;;;;4.70;2.20;;;;;;;9.14;43.13;96986.66;5029863;28;20077;-48
2023/04/04 00:36:59;;;;;;;2.35;1.40;;;;;;;9.44;42.84;96985.97;5018114;28;20099;-46
2023/04/04 00:39:27;;;;;;;4.20;2.20;;;;;;;8.97;43.71;96987.16;5017604;28;20096;-49
2023/04/04 00:41:57;;;;;;;5.00;2.00;;;;;;;9.16;43.26;96983.91;5024492;28;20080;-45
2023/04/04 00:44:25;;;;;;;3.50;1.70;;;;;;;9.04;43.23;96983.91;5021182;28;20081;-48
2023/04/04 00:46:53;;;;;;;2.08;1.35;;;;;;;8.92;43.44;96971.75;5022967;28;20521;-47
2023/04/04 00:49:22;;;;;;;3.72;2.08;;;;;;;9.39;42.99;96974.13;5021536;28;20690;-46
2023/04/04 00:51:50;;;;;;;4.63;2.13;;;;;;;9.52;43.14;96962.47;5018817;28;20085;-47
2023/04/04 00:54:18;;;;;;;4.20;1.70;;;;;;;9.39;42.72;96974.97;5020234;28;20081;-47
2023/04/04 00:56:47;;;;;;;3.20;2.20;;;;;;;9.50;43.59;96969.69;5034128;28;20584;-46
2023/04/04 00:59:17;;;;;;;2.08;1.33;;;;;;;9.45;43.27;96963.94;5019685;28;20551;-47
2023/04/04 01:01:45;;;;;;;4.40;2.20;;;;;;;9.44;43.32;96969.34;5023645;28;20080;-47
2023/04/04 01:04:14;;;;;;;4.40;1.85;;;;;;;9.43;43.22;96959.78;5036866;28;20092;-47
2023/04/04 01:06:43;;;;;;;5.00;1.90;;;;;;;9.36;43.30;96958.59;5020078;28;20089;-49
2023/04/04 01:09:11;;;;;;;6.55;2.47;;;;;;;9.22;43.77;96963.19;5015302;28;20132;-50
2023/04/04 01:11:40;;;;;;;4.97;1.98;;;;;;;9.36;43.32;96964.72;5016067;28;20088;-50
2023/04/04 01:14:08;;;;;;;3.15;1.80;;;;;;;9.32;43.27;96959.81;5014274;28;20082;-47
2023/04/04 01:16:38;;;;;;;2.55;1.52;;;;;;;9.06;43.53;96965.38;5015904;28;20089;-47
2023/04/04 01:19:09;;;;;;;2.00;1.38;;;;;;;9.10;43.72;96963.34;5022795;28;20077;-50
2023/04/04 01:21:38;;;;;;;3.78;2.35;;;;;;;8.96;44.23;96962.66;5017584;28;20095;-49
2023/04/04 01:24:08;;;;;;;7.07;2.08;;;;;;;9.14;43.57;96956.88;5014866;28;20136;-49
2023/04/04 01:26:38;;;;;;;5.25;1.80;;;;;;;8.92;44.12;96958.59;5018402;28;20085;-50
2023/04/04 01:29:06;;;;;;;4.15;2.10;;;;;;;8.97;44.12;96948.53;5020022;28;20077;-53
2023/04/04 01:31:37;;;;;;;3.70;1.95;;;;;;;8.74;44.02;96949.50;5025887;28;20093;-49
2023/04/04 01:34:11;;;;;;;2.67;1.60;;;;;;;8.92;44.34;96948.06;5022378;28;20196;-48
2023/04/04 01:36:43;;;;;;;4.80;2.05;;;;;;;8.97;43.95;96951.16;5020639;28;20107;-52
2023/04/04 01:39:20;;;;;;;4.38;1.92;;;;;;;8.75;44.40;96951.22;5018374;28;20088;-50
2023/04/04 01:41:50;;;;;;;5.88;2.22;;;;;;;8.98;43.92;96941.47;5022410;28;20077;-49
2023/04/04 01:44:18;;;;;;;5.78;2.10;;;;;;;8.81;44.40;96937.59;5021184;28;20125;-46
2023/04/04 01:46:47;;;;;;;3.00;1.88;;;;;;;8.56;44.73;96936.84;5028385;28;20069;-49
2023/04/04 01:49:15;;;;;;;5.00;1.70;;;;;;;8.39;45.01;96929.47;5025077;28;20077;-49
2023/04/04 01:51:45;;;;;;;5.38;2.00;;;;;;;8.69;44.65;96931.47;5054188;28;20064;-49
2023/04/04 01:54:13;;;;;;;1.65;1.05;;;;;;;8.39;44.94;96939.13;5019229;28;20065;-51
2023/04/04 01:56:42;;;;;;;4.50;2.08;;;;;;;8.68;44.50;96935.06;5019851;28;20612;-47
2023/04/04 01:59:12;;;;;;;5.97;2.22;;;;;;;8.72;44.45;96936.50;5021111;28;20084;-46
2023/04/04 02:01:40;;;;;;;4.97;1.77;;;;;;;8.57;44.52;96937.72;5021915;28;20368;-49
2023/04/04 02:04:11;;;;;;;2.97;1.48;;;;;;;8.27;45.23;96940.91;5021497;28;20171;-50
2023/04/04 02:06:40;;;;;;;3.80;2.00;;;;;;;8.43;45.07;96937.94;5018217;28;20079;-50
2023/04/04 02:09:08;;;;;;;3.08;2.03;;;;;;;8.59;44.78;96942.84;5021048;28;20071;-50
2023/04/04 02:11:37;;;;;;;3.08;2.03;;;;;;;8.24;45.12;96936.72;5020277;28;20084;-49
2023/04/04 02:14:06;;;;;;;4.05;2.20;;;;;;;8.50;44.56;96942.63;5019791;28;20133;-49
2023/04/04 02:16:36;;;;;;;5.00;2.35;;;;;;;8.45;45.04;96941.28;5024174;28;20080;-48
2023/04/04 02:19:04;;;;;;;4.20;2.35;;;;;;;7.84;45.67;96934.53;5019235;28;20081;-50
2023/04/04 02:21:32;;;;;;;3.67;2.13;;;;;;;8.10;45.85;96934.31;5018371;28;20097;-49
2023/04/04 02:24:01;;;;;;;2.88;1.42;;;;;;;8.17;45.64;96929.44;5022853;28;20083;-47
2023/04/04 02:26:29;;;;;;;2.55;1.40;;;;;;;8.02;45.71;96932.28;5017864;28;20152;-48
2023/04/04 02:28:57;;;;;;;5.30;2.08;;;;;;;8.35;45.03;96927.16;5020888;28;20076;-50
2023/04/04 02:31:26;;;;;;;4.68;2.47;;;;;;;7.80;45.90;96926.97;5017745;28;20442;-46
2023/04/04 02:33:56;;;;;;;5.13;2.63;;;;;;;8.22;45.42;96929.91;5054832;28;20073;-48
2023/04/04 02:36:24;;;;;;;3.40;2.15;;;;;;;8.25;45.24;96920.00;5031236;28;20061;-51
2023/04/04 02:38:53;;;;;;;3.60;1.88;;;;;;;7.85;45.94;96923.06;5018453;28;20081;-49
2023/04/04 02:41:22;;;;;;;5.25;2.80;;;;;;;8.07;45.51;96922.25;5019790;28;20075;-51
2023/04/04 02:43:50;;;;;;;6.43;2.40;;;;;;;8.19;45.26;96923.13;5021974;28;20080;-52
2023/04/04 02:46:18;;;;;;;7.28;2.05;;;;;;;8.07;45.17;96927.50;5023681;28;20087;-49
2023/04/04 02:48:49;;;;;;;;;;;;;;;8.17;44.85;96929.44;5023404;28;20069;-49
2023/04/04 02:51:19;;;;;;;4.65;2.00;;;;;;;8.00;45.59;96925.47;5026986;28;20532;-54
2023/04/04 02:53:47;;;;;;;3.28;2.20;;;;;;;7.92;45.11;96925.22;5023176;28;20065;-47
2023/04/04 02:56:15;;;;;;;3.45;2.22;;;;;;;7.83;45.76;96929.38;5022638;28;20129;-48
2023/04/04 02:58:44;;;;;;;4.82;2.33;;;;;;;7.77;45.57;96927.22;5023397;28;20081;-47
2023/04/04 03:01:12;;;;;;;1.75;1.38;;;;;;;7.78;45.88;96923.66;5026699;28;20472;-46
2023/04/04 03:03:41;;;;;;;5.25;2.20;;;;;;;7.62;46.19;96923.94;5028733;28;20441;-50
2023/04/04 03:06:10;;;;;;;3.30;1.70;;;;;;;7.73;45.36;96921.34;5019698;28;20467;-45
2023/04/04 03:08:40;;;;;;;3.95;2.20;;;;;;;7.74;45.47;96923.03;5021829;28;20541;-46
2023/04/04 03:11:08;;;;;;;3.40;1.80;;;;;;;7.81;45.08;96913.75;5019310;28;20081;-48
2023/04/04 03:13:37;;;;;;;7.80;1.83;;;;;;;7.91;44.77;96913.03;5023417;28;20084;-48
2023/04/04 03:16:06;;;;;;;5.25;2.20;;;;;;;7.88;44.78;96911.50;5023944;28;20088;-45
2023/04/04 03:18:34;;;;;;;7.30;2.10;;;;;;;7.80;44.69;96916.47;5018542;28;20528;-47
2023/04/04 03:21:03;;;;;;;3.92;2.00;;;;;;;7.70;44.78;96916.31;5021190;28;20549;-47
2023/04/04 03:23:31;;;;;;;4.15;1.95;;;;;;;7.86;44.61;96923.88;5019192;28;20092;-46
2023/04/04 03:26:01;;;;;;;3.80;2.03;;;;;;;7.94;44.33;96925.94;5025445;28;20077;-47
2023/04/04 03:28:29;;;;;;;4.63;2.25;;;;;;;7.97;44.25;96917.81;5019895;28;20096;-48
2023/04/04 03:31:03;;;;;;;7.28;2.92;;;;;;;7.77;44.64;96914.91;5017854;28;20144;-48
2023/04/04 03:33:32;;;;;;;3.65;2.00;;;;;;;7.78;44.40;96918.41;5020058;28;20111;-47
2023/04/04 03:36:01;;;;;;;3.40;2.00;;;;;;;7.58;45.06;96919.88;5025201;28;20081;-47
2023/04/04 03:38:29;;;;;;;2.70;1.55;;;;;;;7.71;44.73;96918.03;5018925;28;20100;-49
2023/04/04 03:41:06;;;;;;;2.35;1.75;;;;;;;7.69;44.43;96919.09;5017060;28;20065;-49
2023/04/04 03:43:34;;;;;;;4.88;2.38;;;;;;;7.57;44.71;96923.44;5020674;28;20454;-47
2023/04/04 03:46:03;;;;;;;4.03;1.92;;;;;;;7.37;44.78;96924.94;5017463;28;20539;-48
2023/04/04 03:48:32;;;;;;;8.15;1.95;;;;;;;7.51;45.00;96926.53;5016930;28;20088;-46
2023/04/04 03:51:03;;;;;;;2.53;1.60;;;;;;;7.81;44.37;96915.50;5021439;28;20458;-49
2023/04/04 03:53:31;;;;;;;4.13;2.20;;;;;;;7.81;44.68;96929.50;5021124;28;20093;-48
2023/04/04 03:56:00;;;;;;;3.58;1.63;;;;;;;7.59;44.66;96929.44;5024353;28;20084;-47
2023/04/04 03:58:30;;;;;;;3.00;1.50;;;;;;;7.66;44.90;96929.81;5021763;28;20622;-48
2023/04/04 04:00:58;;;;;;;1.17;0.85;;;;;;;8.01;43.91;96933.22;5023214;28;20085;-49
2023/04/04 04:03:26;;;;;;;7.38;2.25;;;;;;;7.99;44.18;96929.06;5021656;28;20092;-46
2023/04/04 04:05:55;;;;;;;4.00;2.00;;;;;;;8.06;44.05;96930.25;5029122;28;20383;-44
2023/04/04 04:08:23;;;;;;;3.05;1.40;;;;;;;7.78;44.62;96928.91;5022510;28;20085;-49
2023/04/04 04:10:53;;;;;;;3.78;2.03;;;;;;;7.73;44.61;96936.28;5017400;28;20068;-44
2023/04/04 04:13:21;;;;;;;4.13;1.85;;;;;;;7.94;44.29;96934.63;5021525;28;20081;-47
2023/04/04 04:15:51;;;;;;;5.45;2.25;;;;;;;7.78;44.66;96936.78;5022235;28;20077;-46
2023/04/04 04:18:20;;;;;;;5.78;2.35;;;;;;;7.87;44.64;96936.06;5025450;28;20105;-48
2023/04/04 04:20:48;;;;;;;3.85;1.42;;;;;;;7.90;44.37;96925.31;5026373;28;20077;-48
2023/04/04 04:23:16;;;;;;;3.35;2.00;;;;;;;7.76;44.32;96934.25;5020899;28;20549;-47
2023/04/04 04:25:47;;;;;;;5.60;2.25;;;;;;;7.85;44.68;96938.81;5025953;28;20080;-52
2023/04/04 04:28:16;;;;;;;2.55;1.75;;;;;;;7.87;44.37;96937.84;5022598;28;20080;-45
2023/04/04 04:30:45;;;;;;;4.63;2.88;;;;;;;7.82;44.41;96940.84;5021434;28;20096;-46
2023/04/04 04:33:14;;;;;;;6.30;2.80;;;;;;;8.00;44.25;96941.22;5029927;28;20081;-49
2023/04/04 04:35:43;;;;;;;4.07;2.03;;;;;;;8.03;43.92;96935.75;5026937;28;20077;-46
2023/04/04 04:38:11;;;;;;;6.20;2.95;;;;;;;8.02;43.71;96940.16;5028146;28;20077;-48
2023/04/04 04:40:39;;;;;;;4.25;2.75;;;;;;;7.59;44.17;96940.75;5026289;28;20077;-46
2023/04/04 04:43:08;;;;;;;7.97;2.63;;;;;;;8.05;43.51;96945.19;5026790;28;20476;-49
2023/04/04 04:45:37;;;;;;;5.20;2.28;;;;;;;8.06;43.33;96940.75;5021922;28;20091;-44
2023/04/04 04:48:05;;;;;;;4.82;2.38;;;;;;;7.79;43.69;96952.41;5023451;28;20088;-47
2023/04/04 04:50:35;;;;;;;8.70;2.33;;;;;;;7.73;44.16;96944.13;5022727;28;20111;-49
2023/04/04 04:53:04;;;;;;;7.75;3.05;;;;;;;7.88;43.78;96944.78;5020504;28;20087;-48
2023/04/04 04:55:32;;;;;;;3.30;2.15;;;;;;;7.52;44.17;96934.28;5024444;28;20100;-48
2023/04/04 04:58:00;;;;;;;5.70;2.78;;;;;;;7.31;44.79;96952.47;5022619;28;20079;-51
2023/04/04 05:00:29;;;;;;;6.45;2.60;;;;;;;7.47;44.66;96948.72;5028105;28;20084;-50
2023/04/04 05:02:59;;;;;;;5.47;2.08;;;;;;;7.01;45.13;96960.75;5024045;28;20085;-50
2023/04/04 05:05:27;;;;;;;2.78;1.50;;;;;;;6.77;45.98;96959.88;5033471;28;20591;-48
2023/04/04 05:07:57;;;;;;;9.48;2.70;;;;;;;6.80;46.28;96955.25;5026816;28;20103;-50
2023/04/04 05:10:25;;;;;;;4.70;2.97;;;;;;;7.49;45.01;96949.44;5026536;28;21711;-48
2023/04/04 05:12:53;;;;;;;3.10;2.47;;;;;;;7.76;44.14;96952.63;5025457;28;20077;-47
2023/04/04 05:15:22;;;;;;;4.82;2.55;;;;;;;8.00;43.53;96949.94;5022937;28;20081;-45
2023/04/04 05:17:50;;;;;;;5.05;2.13;;;;;;;8.17;43.33;96953.91;5026082;28;20069;-45
2023/04/04 05:20:18;;;;;;;4.35;2.00;;;;;;;8.03;43.73;96951.50;5026918;28;20089;-47
2023/04/04 05:22:47;;;;;;;5.30;1.88;;;;;;;7.27;44.99;96977.25;5024115;28;20057;-47
2023/04/04 05:25:20;;;;;;;2.80;1.52;;;;;;;7.41;45.04;96967.53;5025742;28;20084;-48
2023/04/04 05:27:48;;;;;;;4.05;2.03;;;;;;;7.37;45.08;96977.41;5028414;28;20073;-47
2023/04/04 05:30:16;;;;;;;5.22;2.17;;;;;;;7.86;44.69;96965.91;5031285;28;20587;-50
2023/04/04 05:32:45;;;;;;;3.35;2.05;;;;;;;7.16;45.52;96974.56;5037651;28;20559;-50
2023/04/04 05:35:14;;;;;;;6.40;2.72;;;;;;;8.11;43.78;96964.88;5033289;28;20809;-49
2023/04/04 05:37:42;;;;;;;7.13;2.50;;;;;;;7.56;44.65;96974.28;5038313;28;20610;-45
2023/04/04 05:40:11;;;;;;;5.13;2.60;;;;;;;7.95;44.40;96959.97;5028363;28;20081;-50
2023/04/04 05:42:41;;;;;;;4.93;2.20;;;;;;;8.03;43.73;96968.09;5030241;28;20545;-50
2023/04/04 05:45:10;;;;;;;4.97;2.22;;;;;;;8.02;43.56;96976.09;5033656;28;20089;-48
2023/04/04 05:47:43;;;;;;;5.13;2.85;;;;;;;7.75;44.26;96968.50;5039158;28;20085;-49
2023/04/04 05:50:11;;;;;;;5.32;2.60;;;;;;;7.77;44.29;96972.66;5040463;28;20081;-48
2023/04/04 05:52:40;;;;;;;2.80;1.95;;;;;;;7.75;44.09;96971.97;5032877;28;20084;-48
2023/04/04 05:55:08;;;;;;;5.13;2.75;;;;;;;7.38;44.71;96984.34;5035285;28;20080;-49
2023/04/04 05:57:37;;;;;;;3.33;1.80;;;;;;;8.11;44.19;96962.25;5038072;28;20081;-46
2023/04/04 06:00:09;;;;;;;5.43;2.42;;;;;;;8.19;43.74;96969.53;5038534;28;20080;-47
2023/04/04 06:02:37;;;;;;;2.80;1.90;;;;;;;8.28;42.83;96967.06;5032289;28;20084;-49
2023/04/04 06:05:07;;;;;;;6.07;2.45;;;;;;;8.20;43.80;96966.81;5039526;28;20081;-45
2023/04/04 06:07:35;;;;;;;5.55;2.47;;;;;;;7.93;43.88;96968.91;5033391;28;20474;-46
2023/04/04 06:10:04;;;;;;;2.92;1.83;;;;;;;8.11;43.92;96974.56;5041872;28;20083;-50
2023/04/04 06:12:32;;;;;;;6.78;1.90;;;;;;;8.31;43.75;96966.81;5032432;28;20089;-47
2023/04/04 06:15:01;;;;;;;6.95;2.72;;;;;;;8.97;43.30;96966.09;5034942;28;20089;-48
2023/04/04 06:17:30;;;;;;;5.88;2.08;;;;;;;8.52;43.22;96971.41;5036767;28;20080;-47
2023/04/04 06:19:59;;;;;;;4.43;2.58;;;;;;;8.65;42.73;96963.41;5032149;28;20697;-49
2023/04/04 06:22:27;;;;;;;6.97;2.20;;;;;;;8.54;43.06;96962.44;5031482;28;20089;-53
2023/04/04 06:24:56;;;;;;;5.75;3.15;;;;;;;8.67;43.64;96970.22;5030569;28;20077;-48
2023/04/04 06:27:24;;;;;;;3.83;2.13;;;;;;;8.31;43.79;96966.81;5036007;28;20081;-46
2023/04/04 06:29:52;;;;;;;3.40;1.85;;;;;;;8.81;43.07;96963.88;5038532;28;20073;-49
2023/04/04 06:32:21;;;;;;;3.58;1.80;;;;;;;9.24;42.48;96960.44;5045113;28;20460;-49
2023/04/04 06:34:51;;;;;;;5.47;2.60;;;;;;;8.33;43.13;96954.41;5039715;28;20471;-51
2023/04/04 06:37:19;;;;;;;3.28;2.25;;;;;;;8.80;42.31;96968.28;5046427;28;20068;-49
2023/04/04 06:39:48;;;;;;;3.25;1.98;;;;;;;8.64;42.66;96959.09;5032110;28;20088;-50
2023/04/04 06:42:16;;;;;;;6.30;2.78;;;;;;;9.12;42.97;96961.41;5043262;28;20068;-49
2023/04/04 06:44:44;;;;;;;5.88;2.92;;;;;;;8.73;42.33;96964.47;5034442;28;20111;-50
2023/04/04 06:47:13;;;;;;;3.58;1.83;;;;;;;8.98;42.46;96962.50;5034259;28;20349;-48
2023/04/04 06:49:41;;;;;;;8.40;3.25;;;;;;;8.93;43.00;96959.44;5034720;28;20513;-50
2023/04/04 06:52:11;;;;;;;5.15;2.70;;;;;;;9.98;41.62;96952.59;5037074;28;20430;-46
2023/04/04 06:54:39;;;;;;;5.77;2.30;;;;;;;9.11;41.47;96951.84;5037733;28;20096;-49
2023/04/04 06:57:07;;;;;;;4.13;2.25;;;;;;;9.34;41.53;96952.63;5033546;28;20072;-47
2023/04/04 06:59:36;;;;;;;4.50;2.83;;;;;;;9.57;41.58;96953.41;5040145;28;20524;-48
2023/04/04 07:02:04;;;;;;;2.95;1.58;;;;;;;9.16;41.67;96954.97;5040409;28;20096;-46
2023/04/04 07:04:34;;;;;;;5.95;2.85;;;;;;;9.95;41.29;96942.31;5035769;28;20087;-51
2023/04/04 07:07:02;;;;;;;3.47;2.20;;;;;;;9.16;41.81;96947.91;5024927;28;20175;-45
2023/04/04 07:09:32;;;;;;;5.43;2.50;;;;;;;8.69;41.11;96952.50;5035829;28;20069;-47
2023/04/04 07:12:00;;;;;;;4.40;2.67;;;;;;;8.88;41.87;96951.91;5063492;28;20084;-51
2023/04/04 07:14:28;;;;;;;8.15;3.83;;;;;;;8.56;41.33;96951.81;5032121;28;20085;-49
2023/04/04 07:16:57;;;;;;;6.47;2.80;;;;;;;10.28;39.77;96943.91;5033746;28;20705;-48
2023/04/04 07:19:27;;;;;;;5.97;2.75;;;;;;;10.62;39.54;96952.38;5035411;28;20069;-50
2023/04/04 07:21:56;;;;;;;6.07;2.42;;;;;;;10.20;39.18;96941.88;5030787;28;20077;-48
2023/04/04 07:24:24;;;;;;;3.10;2.28;;;;;;;10.60;39.12;96948.22;5036106;28;20084;-50
2023/04/04 07:26:54;;;;;;;4.57;3.28;;;;;;;10.35;38.96;96952.13;5036001;28;20080;-50
2023/04/04 07:29:22;;;;;;;6.40;3.17;;;;;;;9.85;39.32;96952.78;5032144;28;20513;-47
2023/04/04 07:31:51;;;;;;;6.20;2.78;;;;;;;10.12;39.25;96946.16;5032450;28;20072;-50
2023/04/04 07:34:20;;;;;;;5.97;2.28;;;;;;;9.58;38.55;96949.78;5037648;28;20473;-49
2023/04/04 07:36:48;;;;;;;6.40;3.03;;;;;;;9.92;38.36;96955.72;5037530;28;20095;-48
2023/04/04 07:39:16;;;;;;;6.18;3.08;;;;;;;10.08;37.36;96942.94;5028355;28;20060;-49
2023/04/04 07:41:45;;;;;;;3.72;2.40;;;;;;;10.05;37.32;96947.63;5031713;28;20073;-49
2023/04/04 07:44:15;;;;;;;3.58;2.50;;;;;;;10.33;36.20;96941.72;5032825;28;20100;-47
2023/04/04 07:46:43;;;;;;;4.40;2.60;;;;;;;10.30;36.35;96941.97;5043358;28;20080;-45
2023/04/04 07:49:15;;;;;;;5.93;3.08;;;;;;;10.21;37.23;96935.66;5033071;28;20514;-50
2023/04/04 07:51:43;;;;;;;5.05;2.38;;;;;;;10.81;36.58;96937.63;5037986;28;20069;-49
2023/04/04 07:54:11;;;;;;;6.28;3.40;;;;;;;10.33;36.44;96938.25;5032000;28;20077;-48
2023/04/04 07:56:40;;;;;;;5.53;2.90;;;;;;;9.80;36.90;96943.56;5039874;28;20107;-49
2023/04/04 07:59:08;;;;;;;6.63;2.75;;;;;;;10.07;36.31;96943.06;5036916;28;20081;-52
2023/04/04 08:01:38;;;;;;;4.35;2.72;;;;;;;11.13;34.99;96940.03;5031911;28;20088;-47
2023/04/04 08:04:06;;;;;;;5.67;3.23;;;;;;;10.64;35.25;96947.81;5040425;28;20072;-49
2023/04/04 08:06:35;;;;;;;5.15;2.85;;;;;;;10.20;36.35;96946.34;5034272;28;20079;-48
2023/04/04 08:09:04;;;;;;;6.32;3.20;;;;;;;10.89;34.57;96950.97;5034297;28;20092;-47
2023/04/04 08:11:32;;;;;;;4.03;2.25;;;;;;;11.30;34.69;96944.66;5028447;28;20509;-50
2023/04/04 08:14:00;;;;;;;4.60;2.85;;;;;;;10.64;34.54;96947.00;5033007;28;20088;-47
2023/04/04 08:16:29;;;;;;;3.42;2.20;;;;;;;11.49;33.53;96935.91;5065826;28;20586;-51
2023/04/04 08:18:59;;;;;;;4.97;2.80;;;;;;;12.45;32.11;96920.06;5031122;28;20084;-52
2023/04/04 08:21:27;;;;;;;6.03;2.40;;;;;;;11.29;33.43;96936.88;5036411;28;20088;-51
2023/04/04 08:23:56;;;;;;;5.07;2.03;;;;;;;11.76;32.73;96921.16;5035754;28;20069;-48
2023/04/04 08:26:24;;;;;;;4.20;2.50;;;;;;;12.11;32.45;96931.16;5029065;28;20085;-48
2023/04/04 08:28:53;;;;;;;3.47;2.03;;;;;;;11.78;32.36;96927.97;5034928;28;20084;-49
2023/04/04 08:31:22;;;;;;;7.80;3.13;;;;;;;12.00;32.08;96926.03;5040120;28;20064;-49
2023/04/04 08:33:51;;;;;;;14.32;5.47;;;;;;;12.16;32.63;96922.81;5031589;28;20085;-47
2023/04/04 08:36:21;;;;;;;9.07;5.95;;;;;;;12.02;32.74;96924.09;5034332;28;20504;-47
2023/04/04 08:38:49;;;;;;;5.75;3.03;;;;;;;11.75;33.20;96925.63;5034321;28;20085;-50
2023/04/04 08:41:18;;;;;;;8.75;3.08;;;;;;;12.65;32.31;96923.47;5029443;28;20308;-53
2023/04/04 08:43:53;;;;;;;5.85;3.90;;;;;;;11.31;32.86;96943.69;5037764;28;20072;-47
2023/04/04 08:46:21;;;;;;;8.10;3.30;;;;;;;12.14;31.81;96933.50;5028299;28;20077;-53
2023/04/04 08:48:51;;;;;;;4.90;2.90;;;;;;;12.28;31.74;96932.22;5038046;28;20100;-49
2023/04/04 08:51:22;;;;;;;3.92;2.10;;;;;;;12.50;31.75;96931.88;5037447;28;20604;-47
2023/04/04 08:53:51;;;;;;;6.28;2.80;;;;;;;12.41;31.09;96926.63;5034133;28;20088;-54
2023/04/04 08:56:20;;;;;;;6.60;3.08;;;;;;;12.34;31.56;96921.91;5033568;28;20201;-52
2023/04/04 08:58:48;;;;;;;3.92;2.80;;;;;;;13.35;30.46;96921.13;5030489;28;20111;-52
2023/04/04 09:01:17;;;;;;;4.78;3.13;;;;;;;12.68;30.26;96931.94;5029969;28;20080;-53
2023/04/04 09:03:46;;;;;;;4.22;2.53;;;;;;;11.96;31.50;96933.41;5038693;28;20099;-51
2023/04/04 09:06:15;;;;;;;5.07;2.78;;;;;;;12.86;30.79;96929.34;5028144;28;20073;-53
2023/04/04 09:08:45;;;;;;;7.90;3.22;;;;;;;12.19;31.36;96935.75;5037535;28;20076;-48
2023/04/04 09:11:13;;;;;;;7.20;2.90;;;;;;;12.62;30.80;96932.53;5032029;28;20072;-53
2023/04/04 09:13:43;;;;;;;5.05;2.80;;;;;;;11.94;31.54;96935.38;5032091;28;20077;-49
2023/04/04 09:16:12;;;;;;;5.60;2.97;;;;;;;12.50;30.17;96931.06;5030379;28;20077;-47
2023/04/04 09:18:40;;;;;;;5.88;2.75;;;;;;;11.85;30.59;96934.41;5035549;28;20093;-47
2023/04/04 09:21:09;;;;;;;5.47;3.10;;;;;;;12.86;30.69;96921.41;5032190;28;20107;-50
2023/04/04 09:23:38;;;;;;;4.85;2.13;;;;;;;12.31;30.61;96931.94;5035212;28;20085;-47
2023/04/04 09:26:08;;;;;;;5.32;3.05;;;;;;;13.26;30.11;96929.00;5029882;28;20077;-51
2023/04/04 09:28:36;;;;;;;6.88;3.45;;;;;;;14.02;29.96;96927.69;5030983;28;20072;-50
2023/04/04 09:31:08;;;;;;;6.60;3.03;;;;;;;13.20;29.18;96939.34;5036563;28;20088;-49
2023/04/04 09:33:38;;;;;;;5.70;2.63;;;;;;;13.41;29.09;96931.97;5032724;28;20072;-50
2023/04/04 09:36:08;;;;;;;4.20;2.30;;;;;;;13.62;28.89;96933.50;5028049;28;20084;-50
2023/04/04 09:38:37;;;;;;;;;;;;;;;13.09;29.52;96945.69;5030244;28;20752;-49
2023/04/04 09:41:09;;;;;;;4.35;2.88;;;;;;;13.79;28.65;96937.94;5030961;28;19956;-47
2023/04/04 09:43:39;;;;;;;8.85;5.68;;;;;;;15.56;27.94;96929.41;5034356;28;20084;-50
2023/04/04 09:46:07;;;;;;;2.53;1.63;;;;;;;15.44;27.09;96928.88;5029393;28;20382;-48
2023/04/04 09:48:36;;;;;;;3.67;2.20;;;;;;;14.59;27.46;96936.06;5035360;28;20080;-50
2023/04/04 09:51:06;;;;;;;5.70;3.25;;;;;;;14.02;27.75;96939.13;5036551;28;20080;-50
2023/04/04 09:53:36;;;;;;;6.63;3.27;;;;;;;13.05;29.08;96942.50;5034435;28;20111;-49
2023/04/04 09:56:06;;;;;;;4.65;2.70;;;;;;;13.24;28.72;96943.38;5028787;28;20461;-49
2023/04/04 09:58:36;;;;;;;3.10;2.23;;;;;;;13.16;28.69;96946.75;5039998;28;20068;-47
2023/04/04 10:01:12;;;;;;;5.75;3.22;;;;;;;12.58;29.24;96955.78;5033274;28;20468;-51
2023/04/04 10:03:41;;;;;;;4.18;3.15;;;;;;;12.69;28.89;96948.66;5038581;28;20503;-48
2023/04/04 10:06:10;;;;;;;4.03;2.78;;;;;;;14.31;27.47;96927.38;5035755;28;20080;-52
2023/04/04 10:08:40;;;;;;;5.20;3.20;;;;;;;12.68;29.14;96947.00;5036436;28;20085;-52
2023/04/04 10:11:08;;;;;;;7.03;2.95;;;;;;;13.73;28.58;96939.41;5037871;28;20089;-49
2023/04/04 10:13:43;;;;;;;5.22;2.83;;;;;;;13.10;28.87;96934.09;5040039;28;20088;-48
2023/04/04 10:16:12;;;;;;;5.47;2.50;;;;;;;12.93;30.22;96948.97;5029847;28;20512;-48
2023/04/04 10:18:40;;;;;;;6.03;3.30;;;;;;;12.41;30.22;96948.63;5033087;28;20092;-50
2023/04/04 10:21:09;;;;;;;3.33;2.42;;;;;;;12.90;29.97;96951.91;5035822;28;20186;-51
2023/04/04 10:23:42;;;;;;;3.83;2.47;;;;;;;12.02;30.25;96951.34;5033394;28;20071;-52
2023/04/04 10:26:11;;;;;;;3.60;2.22;;;;;;;12.81;30.38;96948.34;5036338;28;20064;-49
2023/04/04 10:28:42;;;;;;;3.42;2.38;;;;;;;12.66;29.61;96946.31;5037886;28;20138;-47
2023/04/04 10:31:17;;;;;;;6.10;3.03;;;;;;;13.55;28.91;96935.91;5035274;28;20107;-49
2023/04/04 10:33:50;;;;;;;5.60;3.28;;;;;;;12.64;30.37;96941.16;5041042;28;20475;-47
2023/04/04 10:36:21;;;;;;;5.35;3.10;;;;;;;12.59;30.31;96944.25;5031612;28;20077;-46
2023/04/04 10:39:01;;;;;;;6.70;2.05;;;;;;;12.75;29.36;96942.78;5038836;28;20084;-47
2023/04/04 10:41:32;;;;;;;4.07;2.67;;;;;;;12.17;30.04;96949.09;5029046;28;20076;-47
2023/04/04 10:44:13;;;;;;;5.88;2.60;;;;;;;12.66;29.48;96938.34;5032347;28;20073;-55
2023/04/04 10:46:42;;;;;;;4.75;2.38;;;;;;;13.32;29.04;96940.84;5030647;28;20486;-53
2023/04/04 10:49:11;;;;;;;3.75;2.20;;;;;;;12.44;29.58;96945.69;5041435;28;20108;-52
2023/04/04 10:51:39;;;;;;;6.28;2.47;;;;;;;13.00;30.12;96942.09;5031750;28;20084;-52
2023/04/04 10:54:23;;;;;;;5.25;2.58;;;;;;;13.25;28.40;96937.13;5038732;28;20085;-45
2023/04/04 10:56:52;;;;;;;5.82;2.88;;;;;;;12.72;29.43;96940.44;5036066;28;20085;-48
2023/04/04 10:59:25;;;;;;;4.55;2.45;;;;;;;12.35;30.21;96935.97;5036194;28;20081;-50
2023/04/04 11:01:56;;;;;;;4.22;2.42;;;;;;;12.57;30.89;96938.28;5038131;28;20077;-52
2023/04/04 11:04:31;;;;;;;4.88;2.95;;;;;;;13.27;29.00;96922.72;5024125;28;20081;-49
2023/04/04 11:07:13;;;;;;;4.82;2.70;;;;;;;13.23;29.77;96929.28;5032977;28;20088;-52
2023/04/04 11:09:53;;;;;;;5.60;2.40;;;;;;;12.85;29.07;96924.22;5034477;28;20516;-48
2023/04/04 11:12:23;;;;;;;3.70;1.90;;;;;;;13.52;29.06;96922.97;5031677;28;20088;-51
2023/04/04 11:15:08;;;;;;;5.25;2.55;;;;;;;14.47;27.19;96913.41;5033145;28;20076;-48
2023/04/04 11:18:06;;;;;;;4.72;2.42;;;;;;;14.61;27.91;96910.19;5033694;28;20057;-51
2023/04/04 11:21:00;;;;;;;4.53;2.30;;;;;;;14.90;27.07;96908.97;5036766;28;20054;-49
2023/04/04 11:23:59;;;;;;;4.57;3.00;;;;;;;14.42;27.98;96908.56;5034262;28;20081;-52
2023/04/04 11:26:35;;;;;;;5.00;3.05;;;;;;;14.61;27.43;96907.53;5031672;28;20081;-48
2023/04/04 11:29:06;;;;;;;3.03;2.30;;;;;;;15.94;27.30;96883.75;5030242;28;20089;-46
2023/04/04 11:31:40;;;;;;;3.63;2.60;;;;;;;14.53;26.75;96899.53;5029239;28;20046;-50
2023/04/04 11:34:10;;;;;;;4.90;2.28;;;;;;;13.94;28.33;96901.97;5037989;28;20507;-50
2023/04/04 11:36:53;;;;;;;5.22;3.15;;;;;;;14.70;28.18;96895.97;5027876;28;20548;-49
2023/04/04 11:39:25;;;;;;;5.20;3.00;;;;;;;16.12;27.07;96873.72;5036420;28;20080;-48
2023/04/04 11:41:56;;;;;;;7.18;2.55;;;;;;;16.59;27.50;96876.44;5031181;28;20087;-50
2023/04/04 11:44:26;;;;;;;;;;;;;;;15.30;27.32;96884.34;5030198;28;20089;-47
2023/04/04 11:47:04;;;;;;;5.60;2.38;;;;;;;15.13;26.90;96880.00;5030263;28;19964;-51
2023/04/04 11:49:35;;;;;;;3.92;2.38;;;;;;;14.70;27.13;96892.47;5027119;28;20096;-49
2023/04/04 11:52:07;;;;;;;2.75;2.13;;;;;;;15.59;27.53;96885.72;5030076;28;20077;-47